Terminal Aerodrome Forecast
Issued by NWS Albany, NY

Home | Current Version | Previous Version | Text Only | Print | Product List | Glossary On
Versions: 1 2 3 4 5 6 7 8 9 10 11 12
976
FTUS41 KALY 250546
TAFALB
TAF
KALB 250546Z 2506/2606 01006KT P6SM BKN120 BKN250
     FM250900 03006KT P6SM VCSH BKN050 OVC080
     FM251300 03006KT 6SM -RA BR OVC025
     FM251700 36010G18KT 4SM -RA BR OVC015
     FM260000 01010KT 3SM -RA BR OVC007=

USA.gov is the U.S. government's official web portal to all federal, state and local government web resources and services.